sensor_id;sensor_type;location;lat;lon;timestamp;temperature;humidity
67050;DHT22;53955;52.442;13.284;2022-10-16T00:01:39;18.00;78.90
67050;DHT22;53955;52.442;13.284;2022-10-16T00:04:05;18.00;78.80
67050;DHT22;53955;52.442;13.284;2022-10-16T00:06:32;18.00;79.20
67050;DHT22;53955;52.442;13.284;2022-10-16T00:08:59;18.00;79.10
67050;DHT22;53955;52.442;13.284;2022-10-16T00:11:27;18.00;79.20
67050;DHT22;53955;52.442;13.284;2022-10-16T00:13:57;18.10;79.10
67050;DHT22;53955;52.442;13.284;2022-10-16T00:16:25;18.00;79.00
67050;DHT22;53955;52.442;13.284;2022-10-16T00:18:52;18.10;79.40
67050;DHT22;53955;52.442;13.284;2022-10-16T00:21:20;18.10;79.20
67050;DHT22;53955;52.442;13.284;2022-10-16T00:23:50;18.10;79.00
67050;DHT22;53955;52.442;13.284;2022-10-16T00:26:17;18.10;79.00
67050;DHT22;53955;52.442;13.284;2022-10-16T00:28:45;18.00;79.50
67050;DHT22;53955;52.442;13.284;2022-10-16T00:31:12;18.10;78.80
67050;DHT22;53955;52.442;13.284;2022-10-16T00:33:40;18.00;79.30
67050;DHT22;53955;52.442;13.284;2022-10-16T00:36:11;18.10;79.00
67050;DHT22;53955;52.442;13.284;2022-10-16T00:38:37;18.10;79.50
67050;DHT22;53955;52.442;13.284;2022-10-16T00:41:04;18.10;79.30
67050;DHT22;53955;52.442;13.284;2022-10-16T00:43:41;18.10;79.10
67050;DHT22;53955;52.442;13.284;2022-10-16T00:46:15;18.20;77.70
67050;DHT22;53955;52.442;13.284;2022-10-16T00:48:46;18.10;79.20
67050;DHT22;53955;52.442;13.284;2022-10-16T00:51:15;18.10;79.30
67050;DHT22;53955;52.442;13.284;2022-10-16T00:53:41;18.10;79.20
67050;DHT22;53955;52.442;13.284;2022-10-16T00:56:08;18.10;79.20
67050;DHT22;53955;52.442;13.284;2022-10-16T00:58:34;18.10;78.90
67050;DHT22;53955;52.442;13.284;2022-10-16T01:01:01;18.10;79.90
67050;DHT22;53955;52.442;13.284;2022-10-16T01:03:29;18.10;79.00
67050;DHT22;53955;52.442;13.284;2022-10-16T01:06:07;18.10;79.50
67050;DHT22;53955;52.442;13.284;2022-10-16T01:08:43;18.10;79.10
67050;DHT22;53955;52.442;13.284;2022-10-16T01:11:17;18.10;79.00
67050;DHT22;53955;52.442;13.284;2022-10-16T01:13:50;18.10;79.30
67050;DHT22;53955;52.442;13.284;2022-10-16T01:16:25;18.10;79.80
67050;DHT22;53955;52.442;13.284;2022-10-16T01:18:58;18.00;79.70
67050;DHT22;53955;52.442;13.284;2022-10-16T01:21:29;18.00;79.40
67050;DHT22;53955;52.442;13.284;2022-10-16T01:24:03;18.00;79.50
67050;DHT22;53955;52.442;13.284;2022-10-16T01:26:41;18.00;79.70
67050;DHT22;53955;52.442;13.284;2022-10-16T01:29:17;18.10;80.00
67050;DHT22;53955;52.442;13.284;2022-10-16T01:31:57;18.10;80.00
67050;DHT22;53955;52.442;13.284;2022-10-16T01:34:30;18.10;79.60
67050;DHT22;53955;52.442;13.284;2022-10-16T01:37:02;18.00;79.60
67050;DHT22;53955;52.442;13.284;2022-10-16T01:39:33;18.10;79.80
67050;DHT22;53955;52.442;13.284;2022-10-16T01:42:11;18.00;79.70
67050;DHT22;53955;52.442;13.284;2022-10-16T01:44:40;17.90;79.90
67050;DHT22;53955;52.442;13.284;2022-10-16T01:47:09;18.00;80.10
67050;DHT22;53955;52.442;13.284;2022-10-16T01:49:38;18.00;79.80
67050;DHT22;53955;52.442;13.284;2022-10-16T01:52:09;18.00;79.60
67050;DHT22;53955;52.442;13.284;2022-10-16T01:54:38;17.90;80.50
67050;DHT22;53955;52.442;13.284;2022-10-16T01:57:07;17.90;80.30
67050;DHT22;53955;52.442;13.284;2022-10-16T01:59:42;17.90;80.10
67050;DHT22;53955;52.442;13.284;2022-10-16T02:02:13;17.90;80.20
67050;DHT22;53955;52.442;13.284;2022-10-16T02:04:46;17.90;80.00
67050;DHT22;53955;52.442;13.284;2022-10-16T02:07:14;17.90;80.20
67050;DHT22;53955;52.442;13.284;2022-10-16T02:09:41;18.00;79.80
67050;DHT22;53955;52.442;13.284;2022-10-16T02:12:11;17.90;80.20
67050;DHT22;53955;52.442;13.284;2022-10-16T02:14:40;18.00;80.00
67050;DHT22;53955;52.442;13.284;2022-10-16T02:17:13;17.90;79.90
67050;DHT22;53955;52.442;13.284;2022-10-16T02:19:40;18.00;79.60
67050;DHT22;53955;52.442;13.284;2022-10-16T02:22:09;17.90;80.20
67050;DHT22;53955;52.442;13.284;2022-10-16T02:24:42;17.90;80.00
67050;DHT22;53955;52.442;13.284;2022-10-16T02:27:11;17.90;79.90
67050;DHT22;53955;52.442;13.284;2022-10-16T02:29:42;17.90;80.20
67050;DHT22;53955;52.442;13.284;2022-10-16T02:32:13;17.90;80.20
67050;DHT22;53955;52.442;13.284;2022-10-16T02:34:42;17.80;80.20
67050;DHT22;53955;52.442;13.284;2022-10-16T02:37:09;17.80;80.50
67050;DHT22;53955;52.442;13.284;2022-10-16T02:39:36;17.90;80.30
67050;DHT22;53955;52.442;13.284;2022-10-16T02:42:03;17.90;80.00
67050;DHT22;53955;52.442;13.284;2022-10-16T02:44:30;17.90;79.70
67050;DHT22;53955;52.442;13.284;2022-10-16T02:46:56;18.00;80.20
67050;DHT22;53955;52.442;13.284;2022-10-16T02:49:24;17.90;80.50
67050;DHT22;53955;52.442;13.284;2022-10-16T02:51:50;17.90;80.60
67050;DHT22;53955;52.442;13.284;2022-10-16T02:54:17;17.90;80.30
67050;DHT22;53955;52.442;13.284;2022-10-16T02:56:44;17.90;80.50
67050;DHT22;53955;52.442;13.284;2022-10-16T02:59:10;17.80;80.30
67050;DHT22;53955;52.442;13.284;2022-10-16T03:01:37;17.90;80.50
67050;DHT22;53955;52.442;13.284;2022-10-16T03:04:03;17.90;80.20
67050;DHT22;53955;52.442;13.284;2022-10-16T03:06:31;17.90;80.30
67050;DHT22;53955;52.442;13.284;2022-10-16T03:08:58;17.90;80.40
67050;DHT22;53955;52.442;13.284;2022-10-16T03:11:24;17.90;80.10
67050;DHT22;53955;52.442;13.284;2022-10-16T03:13:51;17.90;80.10
67050;DHT22;53955;52.442;13.284;2022-10-16T03:16:18;17.80;80.60
67050;DHT22;53955;52.442;13.284;2022-10-16T03:18:48;17.90;80.70
67050;DHT22;53955;52.442;13.284;2022-10-16T03:21:14;18.00;80.90
67050;DHT22;53955;52.442;13.284;2022-10-16T03:23:42;17.90;80.30
67050;DHT22;53955;52.442;13.284;2022-10-16T03:26:09;17.80;80.50
67050;DHT22;53955;52.442;13.284;2022-10-16T03:28:35;17.70;81.00
67050;DHT22;53955;52.442;13.284;2022-10-16T03:31:02;17.70;80.60
67050;DHT22;53955;52.442;13.284;2022-10-16T03:33:28;17.70;80.60
67050;DHT22;53955;52.442;13.284;2022-10-16T03:35:55;17.70;80.90
67050;DHT22;53955;52.442;13.284;2022-10-16T03:38:21;17.70;80.80
67050;DHT22;53955;52.442;13.284;2022-10-16T03:40:49;17.70;80.60
67050;DHT22;53955;52.442;13.284;2022-10-16T03:43:16;17.70;81.00
67050;DHT22;53955;52.442;13.284;2022-10-16T03:45:42;17.60;80.90
67050;DHT22;53955;52.442;13.284;2022-10-16T03:48:09;17.60;80.40
67050;DHT22;53955;52.442;13.284;2022-10-16T03:50:36;17.60;80.50
67050;DHT22;53955;52.442;13.284;2022-10-16T03:53:02;17.50;80.90
67050;DHT22;53955;52.442;13.284;2022-10-16T03:55:29;17.50;81.30
67050;DHT22;53955;52.442;13.284;2022-10-16T03:57:57;17.40;81.40
67050;DHT22;53955;52.442;13.284;2022-10-16T04:00:23;17.40;81.50
67050;DHT22;53955;52.442;13.284;2022-10-16T04:02:50;17.40;81.90
67050;DHT22;53955;52.442;13.284;2022-10-16T04:05:16;17.50;81.60
67050;DHT22;53955;52.442;13.284;2022-10-16T04:07:43;17.50;81.30
67050;DHT22;53955;52.442;13.284;2022-10-16T04:10:10;17.60;81.40
67050;DHT22;53955;52.442;13.284;2022-10-16T04:12:36;17.60;81.20
67050;DHT22;53955;52.442;13.284;2022-10-16T04:15:04;17.60;81.20
67050;DHT22;53955;52.442;13.284;2022-10-16T04:17:31;17.50;81.20
67050;DHT22;53955;52.442;13.284;2022-10-16T04:19:58;17.60;81.20
67050;DHT22;53955;52.442;13.284;2022-10-16T04:22:24;17.60;81.00
67050;DHT22;53955;52.442;13.284;2022-10-16T04:24:50;17.70;81.20
67050;DHT22;53955;52.442;13.284;2022-10-16T04:27:17;17.60;81.10
67050;DHT22;53955;52.442;13.284;2022-10-16T04:29:43;17.60;81.10
67050;DHT22;53955;52.442;13.284;2022-10-16T04:32:11;17.40;80.80
67050;DHT22;53955;52.442;13.284;2022-10-16T04:34:39;17.50;80.40
67050;DHT22;53955;52.442;13.284;2022-10-16T04:37:06;17.50;80.90
67050;DHT22;53955;52.442;13.284;2022-10-16T04:39:32;17.50;81.00
67050;DHT22;53955;52.442;13.284;2022-10-16T04:41:59;17.50;81.10
67050;DHT22;53955;52.442;13.284;2022-10-16T04:44:25;17.30;81.60
67050;DHT22;53955;52.442;13.284;2022-10-16T04:46:52;17.20;81.90
67050;DHT22;53955;52.442;13.284;2022-10-16T04:49:19;17.20;82.20
67050;DHT22;53955;52.442;13.284;2022-10-16T04:51:46;17.00;82.00
67050;DHT22;53955;52.442;13.284;2022-10-16T04:54:12;17.10;82.20
67050;DHT22;53955;52.442;13.284;2022-10-16T04:56:39;17.00;82.40
67050;DHT22;53955;52.442;13.284;2022-10-16T04:59:11;17.10;82.30
67050;DHT22;53955;52.442;13.284;2022-10-16T05:01:38;17.20;82.00
67050;DHT22;53955;52.442;13.284;2022-10-16T05:04:04;17.10;81.90
67050;DHT22;53955;52.442;13.284;2022-10-16T05:06:32;17.10;82.20
67050;DHT22;53955;52.442;13.284;2022-10-16T05:08:59;17.10;82.20
67050;DHT22;53955;52.442;13.284;2022-10-16T05:11:25;17.00;82.40
67050;DHT22;53955;52.442;13.284;2022-10-16T05:13:52;16.90;82.00
67050;DHT22;53955;52.442;13.284;2022-10-16T05:16:18;17.00;82.40
67050;DHT22;53955;52.442;13.284;2022-10-16T05:18:45;17.00;82.30
67050;DHT22;53955;52.442;13.284;2022-10-16T05:21:11;17.00;82.50
67050;DHT22;53955;52.442;13.284;2022-10-16T05:23:39;17.10;82.50
67050;DHT22;53955;52.442;13.284;2022-10-16T05:26:06;17.00;82.50
67050;DHT22;53955;52.442;13.284;2022-10-16T05:28:32;17.00;82.40
67050;DHT22;53955;52.442;13.284;2022-10-16T05:30:59;17.10;81.80
67050;DHT22;53955;52.442;13.284;2022-10-16T05:33:25;17.20;82.20
67050;DHT22;53955;52.442;13.284;2022-10-16T05:35:52;17.10;81.50
67050;DHT22;53955;52.442;13.284;2022-10-16T05:38:18;17.20;81.60
67050;DHT22;53955;52.442;13.284;2022-10-16T05:40:52;17.20;81.60
67050;DHT22;53955;52.442;13.284;2022-10-16T05:43:18;17.10;81.60
67050;DHT22;53955;52.442;13.284;2022-10-16T05:45:53;17.10;81.80
67050;DHT22;53955;52.442;13.284;2022-10-16T05:48:20;17.00;81.60
67050;DHT22;53955;52.442;13.284;2022-10-16T05:50:47;17.10;81.90
67050;DHT22;53955;52.442;13.284;2022-10-16T05:53:14;17.10;81.70
67050;DHT22;53955;52.442;13.284;2022-10-16T05:55:40;17.10;81.40
67050;DHT22;53955;52.442;13.284;2022-10-16T05:58:08;17.20;81.20
67050;DHT22;53955;52.442;13.284;2022-10-16T06:00:34;17.50;79.90
67050;DHT22;53955;52.442;13.284;2022-10-16T06:03:01;17.60;79.90
67050;DHT22;53955;52.442;13.284;2022-10-16T06:05:27;17.80;79.40
67050;DHT22;53955;52.442;13.284;2022-10-16T06:07:54;17.70;79.30
67050;DHT22;53955;52.442;13.284;2022-10-16T06:10:21;17.70;80.60
67050;DHT22;53955;52.442;13.284;2022-10-16T06:12:48;17.80;80.20
67050;DHT22;53955;52.442;13.284;2022-10-16T06:15:16;17.80;79.60
67050;DHT22;53955;52.442;13.284;2022-10-16T06:17:42;17.60;79.80
67050;DHT22;53955;52.442;13.284;2022-10-16T06:20:09;17.60;79.90
67050;DHT22;53955;52.442;13.284;2022-10-16T06:22:35;17.30;80.00
67050;DHT22;53955;52.442;13.284;2022-10-16T06:25:02;17.40;80.30
67050;DHT22;53955;52.442;13.284;2022-10-16T06:27:29;17.50;80.30
67050;DHT22;53955;52.442;13.284;2022-10-16T06:29:55;17.40;80.10
67050;DHT22;53955;52.442;13.284;2022-10-16T06:32:24;17.50;80.40
67050;DHT22;53955;52.442;13.284;2022-10-16T06:34:50;17.50;80.40
67050;DHT22;53955;52.442;13.284;2022-10-16T06:37:17;17.30;80.70
67050;DHT22;53955;52.442;13.284;2022-10-16T06:39:43;17.30;80.40
67050;DHT22;53955;52.442;13.284;2022-10-16T06:42:10;17.40;80.50
67050;DHT22;53955;52.442;13.284;2022-10-16T06:44:36;17.30;80.80
67050;DHT22;53955;52.442;13.284;2022-10-16T06:47:03;17.40;80.80
67050;DHT22;53955;52.442;13.284;2022-10-16T06:49:31;17.50;80.30
67050;DHT22;53955;52.442;13.284;2022-10-16T06:51:57;17.50;80.70
67050;DHT22;53955;52.442;13.284;2022-10-16T06:54:24;17.60;80.60
67050;DHT22;53955;52.442;13.284;2022-10-16T06:56:51;17.60;80.70
67050;DHT22;53955;52.442;13.284;2022-10-16T06:59:19;17.60;81.50
67050;DHT22;53955;52.442;13.284;2022-10-16T07:01:46;17.90;80.80
67050;DHT22;53955;52.442;13.284;2022-10-16T07:04:12;18.40;78.30
67050;DHT22;53955;52.442;13.284;2022-10-16T07:06:40;19.00;76.80
67050;DHT22;53955;52.442;13.284;2022-10-16T07:09:09;19.20;75.10
67050;DHT22;53955;52.442;13.284;2022-10-16T07:11:36;19.60;74.10
67050;DHT22;53955;52.442;13.284;2022-10-16T07:14:04;19.50;74.30
67050;DHT22;53955;52.442;13.284;2022-10-16T07:16:32;19.30;75.20
67050;DHT22;53955;52.442;13.284;2022-10-16T07:19:00;19.20;75.20
67050;DHT22;53955;52.442;13.284;2022-10-16T07:21:28;19.10;74.90
67050;DHT22;53955;52.442;13.284;2022-10-16T07:23:58;19.00;75.70
67050;DHT22;53955;52.442;13.284;2022-10-16T07:26:27;19.00;76.00
67050;DHT22;53955;52.442;13.284;2022-10-16T07:28:55;19.60;75.40
67050;DHT22;53955;52.442;13.284;2022-10-16T07:31:22;20.20;72.70
67050;DHT22;53955;52.442;13.284;2022-10-16T07:33:49;20.50;71.90
67050;DHT22;53955;52.442;13.284;2022-10-16T07:36:16;20.50;71.30
67050;DHT22;53955;52.442;13.284;2022-10-16T07:38:43;20.40;71.30
67050;DHT22;53955;52.442;13.284;2022-10-16T07:41:14;20.10;72.20
67050;DHT22;53955;52.442;13.284;2022-10-16T07:43:44;19.90;72.90
67050;DHT22;53955;52.442;13.284;2022-10-16T07:46:11;19.70;73.90
67050;DHT22;53955;52.442;13.284;2022-10-16T07:48:38;19.40;74.10
67050;DHT22;53955;52.442;13.284;2022-10-16T07:51:05;19.30;74.90
67050;DHT22;53955;52.442;13.284;2022-10-16T07:53:33;19.20;75.50
67050;DHT22;53955;52.442;13.284;2022-10-16T07:56:00;19.10;75.80
67050;DHT22;53955;52.442;13.284;2022-10-16T07:58:28;19.00;75.90
67050;DHT22;53955;52.442;13.284;2022-10-16T08:00:55;19.00;76.60
67050;DHT22;53955;52.442;13.284;2022-10-16T08:03:21;18.90;76.60
67050;DHT22;53955;52.442;13.284;2022-10-16T08:05:48;19.00;77.00
67050;DHT22;53955;52.442;13.284;2022-10-16T08:08:15;18.90;77.30
67050;DHT22;53955;52.442;13.284;2022-10-16T08:10:41;18.90;76.90
67050;DHT22;53955;52.442;13.284;2022-10-16T08:13:08;18.90;77.30
67050;DHT22;53955;52.442;13.284;2022-10-16T08:15:36;19.00;77.50
67050;DHT22;53955;52.442;13.284;2022-10-16T08:18:04;19.00;76.90
67050;DHT22;53955;52.442;13.284;2022-10-16T08:20:32;19.00;77.30
67050;DHT22;53955;52.442;13.284;2022-10-16T08:22:59;19.00;77.10
67050;DHT22;53955;52.442;13.284;2022-10-16T08:25:26;19.10;77.10
67050;DHT22;53955;52.442;13.284;2022-10-16T08:27:53;19.10;77.00
67050;DHT22;53955;52.442;13.284;2022-10-16T08:30:21;19.30;76.90
67050;DHT22;53955;52.442;13.284;2022-10-16T08:32:49;19.30;76.50
67050;DHT22;53955;52.442;13.284;2022-10-16T08:35:16;19.40;76.20
67050;DHT22;53955;52.442;13.284;2022-10-16T08:37:43;19.50;76.00
67050;DHT22;53955;52.442;13.284;2022-10-16T08:40:17;19.60;75.70
67050;DHT22;53955;52.442;13.284;2022-10-16T08:43:04;19.60;75.30
67050;DHT22;53955;52.442;13.284;2022-10-16T08:45:37;19.60;75.40
67050;DHT22;53955;52.442;13.284;2022-10-16T08:48:18;19.70;74.90
67050;DHT22;53955;52.442;13.284;2022-10-16T08:50:47;19.50;75.40
67050;DHT22;53955;52.442;13.284;2022-10-16T08:53:17;19.50;75.40
67050;DHT22;53955;52.442;13.284;2022-10-16T08:55:48;19.40;75.80
67050;DHT22;53955;52.442;13.284;2022-10-16T08:58:20;19.50;75.80
67050;DHT22;53955;52.442;13.284;2022-10-16T09:00:50;19.40;75.80
67050;DHT22;53955;52.442;13.284;2022-10-16T09:03:38;19.40;75.90
67050;DHT22;53955;52.442;13.284;2022-10-16T09:12:02;20.00;74.40
67050;DHT22;53955;52.442;13.284;2022-10-16T09:15:01;20.40;75.20
67050;DHT22;53955;52.442;13.284;2022-10-16T09:17:41;20.60;73.80
67050;DHT22;53955;52.442;13.284;2022-10-16T09:23:16;20.80;72.40
67050;DHT22;53955;52.442;13.284;2022-10-16T09:26:09;20.80;72.80
67050;DHT22;53955;52.442;13.284;2022-10-16T09:28:44;20.90;71.10
67050;DHT22;53955;52.442;13.284;2022-10-16T09:31:33;21.10;70.80
67050;DHT22;53955;52.442;13.284;2022-10-16T09:34:08;21.10;69.60
67050;DHT22;53955;52.442;13.284;2022-10-16T09:36:49;21.10;70.20
67050;DHT22;53955;52.442;13.284;2022-10-16T09:39:18;21.00;69.40
67050;DHT22;53955;52.442;13.284;2022-10-16T09:41:48;21.00;69.50
67050;DHT22;53955;52.442;13.284;2022-10-16T09:44:27;21.20;69.10
67050;DHT22;53955;52.442;13.284;2022-10-16T09:47:11;21.40;68.70
67050;DHT22;53955;52.442;13.284;2022-10-16T09:49:52;21.30;68.50
67050;DHT22;53955;52.442;13.284;2022-10-16T09:52:21;21.30;67.70
67050;DHT22;53955;52.442;13.284;2022-10-16T09:54:52;21.20;67.80
67050;DHT22;53955;52.442;13.284;2022-10-16T09:57:20;21.10;68.60
67050;DHT22;53955;52.442;13.284;2022-10-16T09:59:48;21.20;68.80
67050;DHT22;53955;52.442;13.284;2022-10-16T10:02:17;21.30;69.20
67050;DHT22;53955;52.442;13.284;2022-10-16T10:04:49;21.30;67.20
67050;DHT22;53955;52.442;13.284;2022-10-16T10:07:20;21.40;67.40
67050;DHT22;53955;52.442;13.284;2022-10-16T10:09:47;21.50;67.30
67050;DHT22;53955;52.442;13.284;2022-10-16T10:12:18;21.50;66.50
67050;DHT22;53955;52.442;13.284;2022-10-16T10:14:47;21.40;66.50
67050;DHT22;53955;52.442;13.284;2022-10-16T10:17:17;21.40;67.00
67050;DHT22;53955;52.442;13.284;2022-10-16T10:19:50;21.40;66.20
67050;DHT22;53955;52.442;13.284;2022-10-16T10:22:24;21.30;66.00
67050;DHT22;53955;52.442;13.284;2022-10-16T10:25:00;21.40;65.70
67050;DHT22;53955;52.442;13.284;2022-10-16T10:27:34;21.50;64.60
67050;DHT22;53955;52.442;13.284;2022-10-16T10:30:08;21.40;64.90
67050;DHT22;53955;52.442;13.284;2022-10-16T10:32:42;21.40;64.90
67050;DHT22;53955;52.442;13.284;2022-10-16T10:35:15;21.40;64.20
67050;DHT22;53955;52.442;13.284;2022-10-16T10:37:57;21.40;64.70
67050;DHT22;53955;52.442;13.284;2022-10-16T10:40:38;21.50;64.10
67050;DHT22;53955;52.442;13.284;2022-10-16T10:43:17;21.60;63.90
67050;DHT22;53955;52.442;13.284;2022-10-16T10:45:48;21.70;62.00
67050;DHT22;53955;52.442;13.284;2022-10-16T10:48:28;21.80;61.70
67050;DHT22;53955;52.442;13.284;2022-10-16T10:51:03;21.80;59.50
67050;DHT22;53955;52.442;13.284;2022-10-16T10:53:40;21.80;60.60
67050;DHT22;53955;52.442;13.284;2022-10-16T10:56:19;21.80;60.00
67050;DHT22;53955;52.442;13.284;2022-10-16T10:59:02;21.70;60.40
67050;DHT22;53955;52.442;13.284;2022-10-16T11:01:55;21.70;59.70
67050;DHT22;53955;52.442;13.284;2022-10-16T11:05:03;21.70;60.10
67050;DHT22;53955;52.442;13.284;2022-10-16T11:07:41;21.70;59.70
67050;DHT22;53955;52.442;13.284;2022-10-16T11:10:18;21.80;60.60
67050;DHT22;53955;52.442;13.284;2022-10-16T11:12:47;22.00;59.50
67050;DHT22;53955;52.442;13.284;2022-10-16T11:15:18;22.10;57.60
67050;DHT22;53955;52.442;13.284;2022-10-16T11:17:52;22.20;58.90
67050;DHT22;53955;52.442;13.284;2022-10-16T11:20:24;22.50;57.80
67050;DHT22;53955;52.442;13.284;2022-10-16T11:22:54;22.40;58.60
67050;DHT22;53955;52.442;13.284;2022-10-16T11:25:26;22.40;57.00
67050;DHT22;53955;52.442;13.284;2022-10-16T11:28:00;22.30;56.70
67050;DHT22;53955;52.442;13.284;2022-10-16T11:30:33;22.20;55.00
67050;DHT22;53955;52.442;13.284;2022-10-16T11:33:20;22.10;54.80
67050;DHT22;53955;52.442;13.284;2022-10-16T11:35:53;22.00;54.70
67050;DHT22;53955;52.442;13.284;2022-10-16T11:38:27;22.00;54.20
67050;DHT22;53955;52.442;13.284;2022-10-16T11:41:00;22.00;53.00
67050;DHT22;53955;52.442;13.284;2022-10-16T11:43:32;22.00;53.20
67050;DHT22;53955;52.442;13.284;2022-10-16T11:46:02;22.00;53.80
67050;DHT22;53955;52.442;13.284;2022-10-16T11:48:35;22.00;54.00
67050;DHT22;53955;52.442;13.284;2022-10-16T11:51:10;21.90;54.00
67050;DHT22;53955;52.442;13.284;2022-10-16T11:53:44;21.90;52.90
67050;DHT22;53955;52.442;13.284;2022-10-16T11:56:20;21.80;53.60
67050;DHT22;53955;52.442;13.284;2022-10-16T11:58:54;21.70;54.10
67050;DHT22;53955;52.442;13.284;2022-10-16T12:01:29;21.60;53.80
67050;DHT22;53955;52.442;13.284;2022-10-16T12:04:05;21.60;53.00
67050;DHT22;53955;52.442;13.284;2022-10-16T12:06:37;21.70;53.00
67050;DHT22;53955;52.442;13.284;2022-10-16T12:09:13;21.70;52.90
67050;DHT22;53955;52.442;13.284;2022-10-16T12:11:43;21.60;53.50
67050;DHT22;53955;52.442;13.284;2022-10-16T12:14:35;21.70;54.10
67050;DHT22;53955;52.442;13.284;2022-10-16T12:17:04;21.60;52.60
67050;DHT22;53955;52.442;13.284;2022-10-16T12:19:32;21.80;53.80
67050;DHT22;53955;52.442;13.284;2022-10-16T12:22:01;22.00;52.30
67050;DHT22;53955;52.442;13.284;2022-10-16T12:24:33;22.10;52.20
67050;DHT22;53955;52.442;13.284;2022-10-16T12:27:02;22.30;51.60
67050;DHT22;53955;52.442;13.284;2022-10-16T12:29:33;22.40;50.60
67050;DHT22;53955;52.442;13.284;2022-10-16T12:32:00;22.40;49.20
67050;DHT22;53955;52.442;13.284;2022-10-16T12:34:29;22.50;48.20
67050;DHT22;53955;52.442;13.284;2022-10-16T12:37:10;22.50;48.20
67050;DHT22;53955;52.442;13.284;2022-10-16T12:39:37;22.50;48.60
67050;DHT22;53955;52.442;13.284;2022-10-16T12:42:20;22.50;48.50
67050;DHT22;53955;52.442;13.284;2022-10-16T12:44:46;22.40;48.80
67050;DHT22;53955;52.442;13.284;2022-10-16T12:47:21;22.40;47.90
67050;DHT22;53955;52.442;13.284;2022-10-16T12:49:49;22.40;48.10
67050;DHT22;53955;52.442;13.284;2022-10-16T12:52:26;22.50;47.20
67050;DHT22;53955;52.442;13.284;2022-10-16T12:54:56;22.50;47.00
67050;DHT22;53955;52.442;13.284;2022-10-16T12:57:34;22.60;47.20
67050;DHT22;53955;52.442;13.284;2022-10-16T13:00:08;22.60;47.60
67050;DHT22;53955;52.442;13.284;2022-10-16T13:02:54;22.60;47.30
67050;DHT22;53955;52.442;13.284;2022-10-16T13:05:32;22.60;47.50
67050;DHT22;53955;52.442;13.284;2022-10-16T13:08:16;22.50;46.70
67050;DHT22;53955;52.442;13.284;2022-10-16T13:10:58;22.60;46.60
67050;DHT22;53955;52.442;13.284;2022-10-16T13:16:28;22.50;46.20
67050;DHT22;53955;52.442;13.284;2022-10-16T13:19:04;22.30;46.80
67050;DHT22;53955;52.442;13.284;2022-10-16T13:21:41;22.20;47.10
67050;DHT22;53955;52.442;13.284;2022-10-16T13:24:18;22.10;47.20
67050;DHT22;53955;52.442;13.284;2022-10-16T13:26:52;22.00;47.60
67050;DHT22;53955;52.442;13.284;2022-10-16T13:29:23;21.90;48.30
67050;DHT22;53955;52.442;13.284;2022-10-16T13:31:49;22.00;49.00
67050;DHT22;53955;52.442;13.284;2022-10-16T13:34:19;21.90;48.70
67050;DHT22;53955;52.442;13.284;2022-10-16T13:36:49;21.80;48.70
67050;DHT22;53955;52.442;13.284;2022-10-16T13:39:21;21.90;48.80
67050;DHT22;53955;52.442;13.284;2022-10-16T13:42:00;21.90;48.50
67050;DHT22;53955;52.442;13.284;2022-10-16T13:44:31;21.90;48.80
67050;DHT22;53955;52.442;13.284;2022-10-16T13:47:00;21.90;49.20
67050;DHT22;53955;52.442;13.284;2022-10-16T13:49:27;22.00;48.90
67050;DHT22;53955;52.442;13.284;2022-10-16T13:51:54;22.00;49.50
67050;DHT22;53955;52.442;13.284;2022-10-16T13:54:22;22.10;49.00
67050;DHT22;53955;52.442;13.284;2022-10-16T13:56:48;22.30;49.50
67050;DHT22;53955;52.442;13.284;2022-10-16T13:59:24;22.30;48.20
67050;DHT22;53955;52.442;13.284;2022-10-16T14:01:53;22.50;49.50
67050;DHT22;53955;52.442;13.284;2022-10-16T14:04:21;22.50;51.30
67050;DHT22;53955;52.442;13.284;2022-10-16T14:06:50;22.60;50.70
67050;DHT22;53955;52.442;13.284;2022-10-16T14:09:22;22.70;49.60
67050;DHT22;53955;52.442;13.284;2022-10-16T14:11:50;22.70;48.30
67050;DHT22;53955;52.442;13.284;2022-10-16T14:14:18;22.70;47.70
67050;DHT22;53955;52.442;13.284;2022-10-16T14:16:45;22.60;48.00
67050;DHT22;53955;52.442;13.284;2022-10-16T14:19:18;22.60;47.70
67050;DHT22;53955;52.442;13.284;2022-10-16T14:21:47;22.40;48.20
67050;DHT22;53955;52.442;13.284;2022-10-16T14:24:24;22.30;47.50
67050;DHT22;53955;52.442;13.284;2022-10-16T14:26:51;22.10;47.30
67050;DHT22;53955;52.442;13.284;2022-10-16T14:29:20;22.00;47.60
67050;DHT22;53955;52.442;13.284;2022-10-16T14:31:54;22.10;47.60
67050;DHT22;53955;52.442;13.284;2022-10-16T14:34:33;22.00;46.80
67050;DHT22;53955;52.442;13.284;2022-10-16T14:37:05;22.00;45.70
67050;DHT22;53955;52.442;13.284;2022-10-16T14:39:33;22.00;45.80
67050;DHT22;53955;52.442;13.284;2022-10-16T14:42:00;22.00;45.80
67050;DHT22;53955;52.442;13.284;2022-10-16T14:44:30;22.10;45.70
67050;DHT22;53955;52.442;13.284;2022-10-16T14:46:57;22.10;45.40
67050;DHT22;53955;52.442;13.284;2022-10-16T14:49:25;22.10;45.00
67050;DHT22;53955;52.442;13.284;2022-10-16T14:51:55;22.10;45.70
67050;DHT22;53955;52.442;13.284;2022-10-16T14:54:21;22.20;46.10
67050;DHT22;53955;52.442;13.284;2022-10-16T14:56:50;22.10;45.90
67050;DHT22;53955;52.442;13.284;2022-10-16T14:59:27;22.10;46.00
67050;DHT22;53955;52.442;13.284;2022-10-16T15:01:54;22.00;45.20
67050;DHT22;53955;52.442;13.284;2022-10-16T15:04:21;22.00;45.00
67050;DHT22;53955;52.442;13.284;2022-10-16T15:06:48;22.00;44.70
67050;DHT22;53955;52.442;13.284;2022-10-16T15:09:16;22.00;59.10
67050;DHT22;53955;52.442;13.284;2022-10-16T15:11:43;22.10;50.50
67050;DHT22;53955;52.442;13.284;2022-10-16T15:14:11;22.00;46.30
67050;DHT22;53955;52.442;13.284;2022-10-16T15:16:38;22.00;49.20
67050;DHT22;53955;52.442;13.284;2022-10-16T15:19:04;21.90;47.00
67050;DHT22;53955;52.442;13.284;2022-10-16T15:21:32;21.90;58.00
67050;DHT22;53955;52.442;13.284;2022-10-16T15:24:00;21.70;54.50
67050;DHT22;53955;52.442;13.284;2022-10-16T15:26:28;21.70;47.30
67050;DHT22;53955;52.442;13.284;2022-10-16T15:28:55;21.60;46.30
67050;DHT22;53955;52.442;13.284;2022-10-16T15:31:22;21.60;47.10
67050;DHT22;53955;52.442;13.284;2022-10-16T15:33:50;21.50;47.20
67050;DHT22;53955;52.442;13.284;2022-10-16T15:36:25;21.40;47.00
67050;DHT22;53955;52.442;13.284;2022-10-16T15:38:52;21.40;56.80
67050;DHT22;53955;52.442;13.284;2022-10-16T15:41:19;21.40;54.70
67050;DHT22;53955;52.442;13.284;2022-10-16T15:43:48;21.40;53.50
67050;DHT22;53955;52.442;13.284;2022-10-16T15:46:18;21.30;56.90